createdAt,value
2023-04-27T00:00:17.348Z,10.52
2023-04-27T00:02:44.646Z,9.18
2023-04-27T00:05:13.213Z,12.30
2023-04-27T00:07:40.570Z,9.07
2023-04-27T00:10:08.212Z,8.82
2023-04-27T00:12:35.444Z,11.13
2023-04-27T00:15:02.696Z,13.57
2023-04-27T00:17:29.886Z,9.05
2023-04-27T00:19:57.092Z,9.70
2023-04-27T00:22:24.206Z,11.48
2023-04-27T00:24:51.325Z,10.13
2023-04-27T00:27:18.496Z,9.48
2023-04-27T00:29:45.792Z,10.70
2023-04-27T00:32:13.202Z,10.68
2023-04-27T00:34:40.352Z,10.73
2023-04-27T00:37:07.532Z,9.50
2023-04-27T00:39:36.035Z,10.18
2023-04-27T00:42:03.167Z,11.25
2023-04-27T00:44:30.321Z,10.23
2023-04-27T00:46:59.086Z,10.00
2023-04-27T00:49:27.049Z,8.80
2023-04-27T00:51:54.160Z,9.65
2023-04-27T00:54:21.639Z,10.98
2023-04-27T00:56:53.548Z,9.52
2023-04-27T00:59:20.814Z,9.55
2023-04-27T01:01:48.335Z,10.55
2023-04-27T01:04:16.957Z,11.15
2023-04-27T01:06:44.673Z,7.30
2023-04-27T01:09:12.257Z,9.07
2023-04-27T01:11:39.508Z,12.10
2023-04-27T01:14:07.425Z,9.23
2023-04-27T01:16:35.401Z,8.02
2023-04-27T01:19:02.581Z,9.80
2023-04-27T01:21:29.732Z,10.02
2023-04-27T01:23:56.845Z,8.50
2023-04-27T01:26:23.986Z,10.25
2023-04-27T01:28:51.116Z,7.88
2023-04-27T01:31:18.617Z,7.82
2023-04-27T01:33:45.892Z,7.28
2023-04-27T01:36:13.001Z,9.25
2023-04-27T01:38:40.272Z,7.88
2023-04-27T01:41:09.177Z,9.65
2023-04-27T01:43:39.850Z,6.88
2023-04-27T01:46:11.638Z,8.73
2023-04-27T01:48:39.448Z,7.72
2023-04-27T01:51:06.628Z,9.88
2023-04-27T01:53:33.756Z,9.00
2023-04-27T01:56:01.420Z,9.18
2023-04-27T01:58:28.723Z,9.07
2023-04-27T02:00:55.911Z,10.70
2023-04-27T02:03:23.155Z,9.20
2023-04-27T02:05:50.428Z,8.00
2023-04-27T02:08:17.520Z,10.65
2023-04-27T02:10:44.645Z,13.93
2023-04-27T02:13:11.816Z,13.07
2023-04-27T02:15:39.017Z,9.68
2023-04-27T02:18:06.315Z,10.60
2023-04-27T02:20:34.051Z,10.80
2023-04-27T02:23:02.326Z,10.10
2023-04-27T02:25:29.498Z,7.68
2023-04-27T02:27:57.087Z,7.97
2023-04-27T02:30:24.791Z,9.30
2023-04-27T02:32:53.267Z,8.40
2023-04-27T02:35:20.457Z,8.52
2023-04-27T02:37:47.569Z,10.13
2023-04-27T02:40:14.782Z,7.85
2023-04-27T02:42:41.882Z,8.52
2023-04-27T02:45:09.427Z,9.23
2023-04-27T02:47:36.588Z,9.73
2023-04-27T02:50:04.208Z,8.50
2023-04-27T02:52:31.443Z,9.63
2023-04-27T02:54:58.599Z,7.65
2023-04-27T02:57:25.800Z,7.88
2023-04-27T02:59:53.348Z,9.02
2023-04-27T03:02:20.644Z,8.25
2023-04-27T03:04:48.006Z,7.55
2023-04-27T03:07:15.181Z,8.77
2023-04-27T03:09:42.289Z,9.65
2023-04-27T03:12:09.381Z,8.40
2023-04-27T03:14:36.599Z,8.20
2023-04-27T03:17:03.703Z,8.30
2023-04-27T03:47:22.733Z,9.85
2023-04-27T03:49:50.022Z,6.28
2023-04-27T03:52:17.165Z,7.15
2023-04-27T03:54:44.559Z,8.07
2023-04-27T03:57:11.660Z,7.47
2023-04-27T03:59:38.822Z,7.13
2023-04-27T04:02:06.510Z,6.30
2023-04-27T04:04:33.722Z,9.18
2023-04-27T04:07:00.952Z,8.90
2023-04-27T04:09:28.063Z,7.72
2023-04-27T04:11:55.590Z,8.15
2023-04-27T04:14:22.741Z,9.68
2023-04-27T04:16:49.919Z,8.05
2023-04-27T04:19:17.220Z,8.07
2023-04-27T04:21:44.391Z,8.70
2023-04-27T04:24:11.553Z,7.32
2023-04-27T04:26:39.418Z,8.23
2023-04-27T04:29:09.533Z,8.30
2023-04-27T04:31:38.232Z,9.90
2023-04-27T04:34:05.416Z,6.95
2023-04-27T04:36:32.821Z,7.03
2023-04-27T04:39:00.469Z,8.80
2023-04-27T04:41:27.761Z,8.50
2023-04-27T04:43:54.871Z,7.50
2023-04-27T04:46:22.353Z,11.18
2023-04-27T04:48:49.556Z,11.07
2023-04-27T04:51:16.713Z,10.38
2023-04-27T04:53:44.038Z,8.32
2023-04-27T04:56:12.520Z,10.38
2023-04-27T04:58:39.801Z,9.73
2023-04-27T05:01:07.398Z,8.05
2023-04-27T05:03:34.824Z,8.18
2023-04-27T05:06:02.197Z,10.05
2023-04-27T05:08:29.465Z,8.68
2023-04-27T05:10:56.682Z,6.85
2023-04-27T05:13:24.860Z,6.55
2023-04-27T05:15:52.444Z,8.65
2023-04-27T05:18:19.822Z,7.20
2023-04-27T05:20:46.946Z,8.52
2023-04-27T05:23:14.201Z,8.95
2023-04-27T05:25:41.841Z,10.23
2023-04-27T05:28:09.917Z,12.32
2023-04-27T05:30:37.369Z,9.65
2023-04-27T05:33:05.203Z,7.93
2023-04-27T05:35:32.884Z,9.70
2023-04-27T05:38:00.681Z,9.52
2023-04-27T05:40:27.903Z,10.20
2023-04-27T05:42:55.145Z,9.88
2023-04-27T05:45:22.258Z,10.10
2023-04-27T05:47:49.614Z,9.40
2023-04-27T05:50:16.776Z,10.00
2023-04-27T05:52:44.104Z,7.13
2023-04-27T05:55:11.371Z,7.10
2023-04-27T05:57:38.510Z,8.38
2023-04-27T06:00:10.881Z,9.30
2023-04-27T06:02:38.194Z,8.02
2023-04-27T06:05:05.568Z,11.57
2023-04-27T06:07:32.696Z,13.50
2023-04-27T06:09:59.896Z,17.25
2023-04-27T06:12:27.189Z,10.40
2023-04-27T06:14:54.424Z,10.10
2023-04-27T06:17:22.328Z,11.68
2023-04-27T06:19:49.539Z,8.50
2023-04-27T06:22:16.662Z,17.88
2023-04-27T06:24:44.084Z,7.32
2023-04-27T06:27:11.630Z,10.45
2023-04-27T06:29:38.746Z,10.98
2023-04-27T06:32:06.884Z,11.20
2023-04-27T06:34:35.218Z,13.60
2023-04-27T06:37:02.411Z,14.57
2023-04-27T06:39:29.760Z,12.88
2023-04-27T06:41:56.919Z,8.40
2023-04-27T06:44:24.072Z,11.60
2023-04-27T06:46:51.331Z,9.20
2023-04-27T06:49:18.465Z,9.80
2023-04-27T06:51:46.669Z,10.55
2023-04-27T06:54:13.919Z,9.27
2023-04-27T06:56:41.521Z,10.38
2023-04-27T06:59:09.269Z,9.05
2023-04-27T07:01:36.515Z,8.48
2023-04-27T07:04:04.481Z,14.60
2023-04-27T07:06:31.778Z,12.60
2023-04-27T07:08:59.041Z,11.60
2023-04-27T07:11:26.410Z,12.05
2023-04-27T07:13:53.576Z,12.02
2023-04-27T07:16:20.913Z,9.57
2023-04-27T07:18:48.086Z,10.85
2023-04-27T07:21:15.322Z,10.40
2023-04-27T07:23:42.874Z,9.80
2023-04-27T07:26:10.296Z,9.23
2023-04-27T07:28:38.367Z,10.27
2023-04-27T07:31:06.134Z,8.68
2023-04-27T07:33:33.696Z,10.07
2023-04-27T07:36:01.918Z,10.88
2023-04-27T07:38:30.131Z,9.05
2023-04-27T07:40:58.936Z,10.10
2023-04-27T07:43:26.746Z,11.98
2023-04-27T07:45:55.547Z,11.23
2023-04-27T07:48:22.929Z,8.02
2023-04-27T07:50:50.738Z,9.48
2023-04-27T07:53:18.052Z,9.32
2023-04-27T07:55:45.173Z,7.38
2023-04-27T07:58:12.623Z,6.20
2023-04-27T08:00:39.752Z,6.90
2023-04-27T08:03:07.889Z,5.97
2023-04-27T08:05:35.746Z,7.63
2023-04-27T08:08:03.246Z,8.00
2023-04-27T08:10:30.459Z,7.85
2023-04-27T08:12:57.630Z,8.43
2023-04-27T08:15:24.796Z,7.70
2023-04-27T08:17:51.944Z,9.88
2023-04-27T08:20:19.138Z,8.32
2023-04-27T08:22:46.271Z,7.97
2023-04-27T08:25:13.385Z,6.93
2023-04-27T08:27:41.055Z,9.05
2023-04-27T08:30:08.713Z,7.45
2023-04-27T08:32:35.964Z,7.45
2023-04-27T08:35:03.885Z,7.43
2023-04-27T08:37:31.009Z,7.15
2023-04-27T08:39:58.264Z,7.47
2023-04-27T08:42:25.554Z,6.82
2023-04-27T08:44:52.727Z,7.60
2023-04-27T08:47:25.785Z,8.65
2023-04-27T08:50:02.193Z,7.40
2023-04-27T08:52:29.435Z,6.13
2023-04-27T08:54:56.548Z,6.50
2023-04-27T08:57:23.679Z,7.82
2023-04-27T09:00:00.203Z,11.48
2023-04-27T09:02:29.749Z,8.40
2023-04-27T09:04:57.445Z,6.03
2023-04-27T09:07:26.204Z,6.07
2023-04-27T09:10:03.272Z,7.22
2023-04-27T09:12:30.386Z,9.82
2023-04-27T09:14:58.324Z,10.27
2023-04-27T09:17:28.981Z,8.40
2023-04-27T09:20:13.373Z,6.85
2023-04-27T09:22:44.462Z,7.50
2023-04-27T09:25:11.680Z,8.00
2023-04-27T09:27:39.314Z,6.60
2023-04-27T09:30:15.760Z,10.10
2023-04-27T09:32:56.725Z,7.18
2023-04-27T09:35:25.171Z,6.90
2023-04-27T09:37:52.986Z,12.15
2023-04-27T09:40:23.499Z,6.80
2023-04-27T09:42:50.910Z,8.25
2023-04-27T09:45:19.009Z,6.07
2023-04-27T09:47:46.268Z,10.65
2023-04-27T09:50:14.245Z,4.18
2023-04-27T09:52:41.664Z,7.30
2023-04-27T09:55:11.464Z,4.93
2023-04-27T09:58:06.362Z,5.15
2023-04-27T10:00:47.248Z,6.78
2023-04-27T10:03:28.644Z,7.72
2023-04-27T10:06:07.846Z,5.43
2023-04-27T10:08:35.974Z,7.43
2023-04-27T10:11:13.773Z,6.18
2023-04-27T10:13:53.144Z,7.32
2023-04-27T10:16:22.201Z,8.95
2023-04-27T10:18:53.705Z,4.95
2023-04-27T10:21:21.054Z,7.75
2023-04-27T10:23:51.733Z,5.93
2023-04-27T10:26:25.907Z,6.65
2023-04-27T10:29:05.451Z,7.10
2023-04-27T10:31:33.374Z,5.47
2023-04-27T10:34:08.453Z,6.35
2023-04-27T10:36:39.435Z,7.20
2023-04-27T10:39:19.259Z,4.78
2023-04-27T10:41:52.255Z,7.07
2023-04-27T10:44:29.201Z,6.70
2023-04-27T10:46:57.379Z,5.75
2023-04-27T10:49:24.836Z,5.75
2023-04-27T10:51:52.063Z,4.28
2023-04-27T10:54:19.407Z,4.93
2023-04-27T10:56:46.654Z,5.32
2023-04-27T10:59:13.997Z,5.00
2023-04-27T11:01:42.313Z,5.40
2023-04-27T11:04:09.596Z,8.48
2023-04-27T11:06:42.713Z,4.63
2023-04-27T11:09:11.059Z,4.43
2023-04-27T11:11:38.195Z,6.93
2023-04-27T11:14:05.483Z,4.63
2023-04-27T11:16:33.098Z,4.22
2023-04-27T11:19:05.645Z,4.82
2023-04-27T11:21:33.459Z,13.18
2023-04-27T11:24:07.222Z,4.45
2023-04-27T11:26:34.631Z,4.70
2023-04-27T11:29:09.405Z,35.90
2023-04-27T11:34:04.048Z,19.48
2023-04-27T11:36:31.805Z,5.00
2023-04-27T11:39:00.053Z,5.90
2023-04-27T11:41:34.202Z,7.00
2023-04-27T11:44:06.402Z,5.93
2023-04-27T11:46:33.824Z,4.18
2023-04-27T11:49:11.314Z,6.53
2023-04-27T11:51:40.650Z,6.05
2023-04-27T11:54:08.211Z,3.75
2023-04-27T11:56:45.169Z,7.90
2023-04-27T11:59:22.938Z,4.22
2023-04-27T12:01:50.106Z,4.53
2023-04-27T12:04:34.851Z,6.38
2023-04-27T12:07:02.488Z,5.63
2023-04-27T12:09:29.703Z,4.70
2023-04-27T12:11:57.058Z,5.88
2023-04-27T12:14:24.934Z,3.80
2023-04-27T12:16:52.498Z,3.53
2023-04-27T12:19:19.863Z,5.22
2023-04-27T12:21:47.122Z,6.15
2023-04-27T12:24:14.537Z,4.90
2023-04-27T12:26:41.815Z,6.95
2023-04-27T12:29:09.102Z,7.65
2023-04-27T12:31:36.368Z,6.20
2023-04-27T12:34:03.597Z,6.40
2023-04-27T12:36:31.854Z,3.58
2023-04-27T12:38:59.791Z,3.05
2023-04-27T12:41:27.107Z,4.63
2023-04-27T12:43:54.254Z,5.28
2023-04-27T12:46:21.453Z,4.78
2023-04-27T12:48:48.743Z,4.15
2023-04-27T12:51:16.660Z,7.22
2023-04-27T12:53:44.057Z,4.85
2023-04-27T12:56:11.229Z,5.57
2023-04-27T12:58:38.348Z,3.78
2023-04-27T13:01:07.720Z,4.70
2023-04-27T13:03:35.067Z,4.47
2023-04-27T13:06:02.234Z,6.18
2023-04-27T13:08:29.880Z,4.25
2023-04-27T13:10:57.137Z,4.47
2023-04-27T13:13:24.290Z,5.65
2023-04-27T13:15:51.493Z,5.13
2023-04-27T13:18:18.682Z,4.38
2023-04-27T13:20:46.028Z,7.97
2023-04-27T13:23:13.532Z,5.82
2023-04-27T13:25:41.076Z,4.47
2023-04-27T13:28:08.339Z,3.55
2023-04-27T13:30:35.710Z,4.70
2023-04-27T13:33:18.471Z,3.90
2023-04-27T13:41:11.097Z,5.15
2023-04-27T13:43:38.310Z,6.13
2023-04-27T13:46:05.453Z,5.00
2023-04-27T13:48:32.561Z,5.65
2023-04-27T13:50:59.708Z,6.20
2023-04-27T13:53:27.274Z,4.03
2023-04-27T13:55:56.041Z,5.10
2023-04-27T13:58:25.624Z,2.67
2023-04-27T14:00:53.575Z,5.97
2023-04-27T14:03:21.534Z,3.50
2023-04-27T14:05:50.963Z,5.00
2023-04-27T14:08:21.778Z,4.18
2023-04-27T14:10:49.391Z,3.90
2023-04-27T14:13:16.690Z,4.95
2023-04-27T14:15:43.893Z,3.17
2023-04-27T14:18:11.157Z,8.00
2023-04-27T14:20:40.220Z,5.70
2023-04-27T14:23:07.378Z,2.78
2023-04-27T14:25:35.086Z,4.32
2023-04-27T14:28:03.047Z,3.03
2023-04-27T14:30:30.147Z,3.83
2023-04-27T14:32:57.371Z,5.10
2023-04-27T14:35:24.863Z,2.85
2023-04-27T14:37:52.904Z,2.83
2023-04-27T14:40:20.395Z,3.00
2023-04-27T14:42:47.506Z,6.38
2023-04-27T14:45:17.288Z,4.45
2023-04-27T14:47:44.430Z,4.45
2023-04-27T14:50:11.716Z,6.22
2023-04-27T14:52:38.958Z,3.70
2023-04-27T14:57:34.462Z,6.50
2023-04-27T15:00:01.626Z,7.53
2023-04-27T15:02:30.074Z,3.15
2023-04-27T15:04:58.350Z,3.45
2023-04-27T15:07:25.518Z,3.63
2023-04-27T15:09:54.250Z,4.45
2023-04-27T15:12:21.831Z,3.17
2023-04-27T15:14:51.598Z,4.00
2023-04-27T15:17:18.812Z,3.40
2023-04-27T15:19:45.954Z,4.85
2023-04-27T15:22:14.358Z,3.47
2023-04-27T15:24:41.515Z,7.47
2023-04-27T15:27:09.994Z,3.28
2023-04-27T15:29:37.657Z,4.47
2023-04-27T15:32:04.989Z,2.80
2023-04-27T15:34:32.489Z,3.42
2023-04-27T15:36:59.599Z,3.13
2023-04-27T15:39:28.171Z,3.92
2023-04-27T15:41:57.029Z,4.80
2023-04-27T15:44:24.103Z,4.68
2023-04-27T15:46:51.870Z,3.30
2023-04-27T15:49:18.996Z,3.60
2023-04-27T15:51:46.089Z,2.75
2023-04-27T15:54:13.274Z,2.72
2023-04-27T15:56:40.732Z,5.25
2023-04-27T15:59:08.334Z,5.20
2023-04-27T16:01:35.702Z,4.88
2023-04-27T16:04:03.030Z,2.45
2023-04-27T16:06:31.958Z,3.85
2023-04-27T16:08:59.194Z,3.65
2023-04-27T16:11:26.299Z,5.13
2023-04-27T16:13:53.565Z,6.95
2023-04-27T16:16:20.723Z,3.85
2023-04-27T16:18:47.925Z,3.40
2023-04-27T16:21:15.098Z,3.42
2023-04-27T16:23:42.235Z,3.65
2023-04-27T16:26:09.360Z,3.47
2023-04-27T16:28:37.088Z,4.55
2023-04-27T16:31:05.822Z,5.30
2023-04-27T16:33:33.037Z,3.35
2023-04-27T16:36:00.202Z,3.92
2023-04-27T16:38:27.308Z,3.72
2023-04-27T16:40:56.047Z,7.15
2023-04-27T16:43:23.740Z,4.45
2023-04-27T16:45:51.093Z,4.70
2023-04-27T16:48:18.236Z,2.35
2023-04-27T16:50:45.335Z,3.92
2023-04-27T16:53:20.283Z,3.97
2023-04-27T16:55:48.134Z,3.45
2023-04-27T16:58:15.842Z,6.80
2023-04-27T17:00:43.017Z,2.65
2023-04-27T17:03:10.925Z,3.67
2023-04-27T17:05:38.162Z,3.58
2023-04-27T17:08:07.120Z,3.97
2023-04-27T17:10:36.529Z,6.32
2023-04-27T17:13:04.928Z,3.50
2023-04-27T17:15:32.304Z,4.57
2023-04-27T17:17:59.649Z,6.20
2023-04-27T17:20:26.800Z,3.50
2023-04-27T17:22:53.913Z,2.47
2023-04-27T17:25:21.192Z,6.05
2023-04-27T17:27:48.293Z,5.18
2023-04-27T17:30:15.669Z,4.03
2023-04-27T17:32:42.956Z,3.63
2023-04-27T17:35:11.464Z,3.70
2023-04-27T17:37:38.575Z,4.47
2023-04-27T17:40:09.787Z,5.25
2023-04-27T17:42:36.981Z,4.95
2023-04-27T17:45:04.183Z,7.20
2023-04-27T17:47:32.174Z,3.33
2023-04-27T17:49:59.366Z,4.43
2023-04-27T17:52:26.489Z,3.92
2023-04-27T17:54:53.751Z,5.30
2023-04-27T17:57:21.504Z,4.60
2023-04-27T17:59:49.954Z,4.13
2023-04-27T18:02:17.417Z,6.50
2023-04-27T18:04:44.729Z,9.30
2023-04-27T18:07:11.932Z,5.25
2023-04-27T18:09:39.124Z,6.38
2023-04-27T18:12:10.880Z,5.22
2023-04-27T18:14:38.491Z,10.23
2023-04-27T18:17:05.923Z,4.88
2023-04-27T18:19:33.482Z,4.55
2023-04-27T18:22:00.715Z,6.45
2023-04-27T18:24:27.877Z,7.35
2023-04-27T18:26:55.115Z,9.43
2023-04-27T18:29:22.198Z,5.45
2023-04-27T18:31:49.555Z,4.65
2023-04-27T18:34:16.841Z,8.00
2023-04-27T18:36:45.737Z,4.65
2023-04-27T18:39:13.105Z,3.83
2023-04-27T18:41:40.569Z,6.07
2023-04-27T18:44:07.746Z,4.30
2023-04-27T18:46:35.063Z,4.43
2023-04-27T18:49:02.556Z,5.57
2023-04-27T18:51:30.589Z,6.85
2023-04-27T18:53:57.743Z,5.95
2023-04-27T18:56:24.954Z,5.32
2023-04-27T18:58:53.261Z,4.72
2023-04-27T19:01:23.977Z,4.47
2023-04-27T19:03:51.357Z,4.43
2023-04-27T19:06:20.202Z,6.53
2023-04-27T19:08:48.142Z,3.63
2023-04-27T19:11:15.487Z,6.70
2023-04-27T19:13:44.158Z,3.63
2023-04-27T19:16:11.660Z,5.30
2023-04-27T19:18:40.611Z,5.63
2023-04-27T19:21:09.949Z,7.03
2023-04-27T19:23:37.276Z,5.65
2023-04-27T19:26:12.499Z,7.32
2023-04-27T19:28:41.002Z,4.43
2023-04-27T19:31:08.504Z,5.22
2023-04-27T19:33:35.914Z,6.18
2023-04-27T19:36:03.075Z,7.78
2023-04-27T19:38:30.268Z,8.18
2023-04-27T19:40:57.438Z,6.75
2023-04-27T19:43:24.562Z,4.38
2023-04-27T19:45:51.965Z,6.88
2023-04-27T19:48:19.129Z,5.28
2023-04-27T19:50:46.257Z,7.75
2023-04-27T19:53:13.375Z,6.25
2023-04-27T19:55:42.245Z,7.75
2023-04-27T19:58:09.490Z,7.88
2023-04-27T20:00:36.657Z,8.32
2023-04-27T20:03:03.925Z,7.68
2023-04-27T20:05:31.411Z,7.38
2023-04-27T20:07:58.710Z,7.80
2023-04-27T20:10:25.836Z,5.95
2023-04-27T20:12:57.192Z,6.15
2023-04-27T20:15:25.214Z,7.63
2023-04-27T20:17:52.984Z,9.43
2023-04-27T20:20:20.832Z,8.40
2023-04-27T20:22:48.028Z,8.95
2023-04-27T20:25:15.608Z,8.65
2023-04-27T20:27:42.789Z,8.80
2023-04-27T20:30:10.132Z,6.85
2023-04-27T20:32:39.478Z,8.52
2023-04-27T20:35:11.502Z,7.75
2023-04-27T20:37:39.302Z,6.82
2023-04-27T20:40:07.770Z,7.35
2023-04-27T20:42:35.977Z,7.57
2023-04-27T20:45:05.401Z,8.35
2023-04-27T20:47:32.636Z,7.68
2023-04-27T20:49:59.797Z,10.45
2023-04-27T20:52:30.236Z,6.55
2023-04-27T20:54:59.038Z,6.85
2023-04-27T20:57:26.421Z,6.25
2023-04-27T20:59:53.564Z,8.10
2023-04-27T21:02:20.764Z,10.35
2023-04-27T21:04:48.053Z,7.82
2023-04-27T21:07:15.431Z,6.15
2023-04-27T21:09:42.529Z,7.40
2023-04-27T21:12:09.809Z,8.48
2023-04-27T21:14:37.473Z,8.07
2023-04-27T21:17:04.693Z,7.93
2023-04-27T21:19:31.983Z,7.63
2023-04-27T21:21:59.212Z,8.32
2023-04-27T21:24:26.443Z,8.15
2023-04-27T21:26:53.556Z,8.93
2023-04-27T21:29:21.018Z,7.22
2023-04-27T21:31:48.104Z,7.97
2023-04-27T21:34:15.522Z,8.35
2023-04-27T21:36:42.804Z,9.65
2023-04-27T21:39:09.920Z,8.38
2023-04-27T21:41:39.166Z,8.15
2023-04-27T21:44:06.416Z,11.35
2023-04-27T21:46:33.594Z,8.05
2023-04-27T21:49:00.953Z,9.60
2023-04-27T21:51:28.121Z,8.60
2023-04-27T21:53:55.422Z,9.02
2023-04-27T21:56:22.574Z,8.80
2023-04-27T21:58:51.923Z,10.98
2023-04-27T22:01:19.148Z,9.43
2023-04-27T22:03:46.450Z,10.30
2023-04-27T22:06:14.223Z,9.85
2023-04-27T22:08:41.617Z,9.05
2023-04-27T22:11:08.818Z,9.38
2023-04-27T22:13:35.991Z,11.23
2023-04-27T22:16:03.227Z,10.35
2023-04-27T22:18:30.607Z,11.13
2023-04-27T22:20:58.246Z,9.20
2023-04-27T22:23:25.903Z,8.15
2023-04-27T22:25:53.074Z,11.48
2023-04-27T22:28:20.226Z,7.70
2023-04-27T22:30:47.415Z,10.02
2023-04-27T22:33:14.608Z,11.73
2023-04-27T22:35:41.770Z,14.85
2023-04-27T22:38:09.820Z,9.30
2023-04-27T22:40:37.474Z,9.30
2023-04-27T22:43:04.588Z,9.85
2023-04-27T22:45:31.916Z,10.98
2023-04-27T22:47:59.130Z,6.80
2023-04-27T22:50:26.979Z,6.75
2023-04-27T22:52:54.105Z,9.50
2023-04-27T22:55:21.243Z,10.32
2023-04-27T22:57:49.959Z,8.55
2023-04-27T23:00:17.363Z,11.07
2023-04-27T23:02:44.712Z,11.75
2023-04-27T23:05:14.967Z,6.63
2023-04-27T23:07:42.785Z,7.55
2023-04-27T23:10:10.600Z,7.43
2023-04-27T23:12:38.650Z,6.72
2023-04-27T23:15:06.003Z,9.27
2023-04-27T23:17:33.492Z,6.75
2023-04-27T23:20:02.148Z,7.25
2023-04-27T23:22:29.278Z,8.35
2023-04-27T23:24:56.705Z,10.32
2023-04-27T23:27:24.828Z,9.90
2023-04-27T23:29:52.651Z,7.28
2023-04-27T23:32:19.982Z,8.63
2023-04-27T23:34:47.424Z,10.73
2023-04-27T23:37:14.567Z,8.00
2023-04-27T23:39:41.763Z,7.97
2023-04-27T23:42:08.907Z,9.90
2023-04-27T23:44:36.013Z,7.40
2023-04-27T23:47:03.115Z,6.30
2023-04-27T23:49:30.220Z,5.45
2023-04-27T23:51:57.340Z,5.93
2023-04-27T23:54:24.500Z,5.80
2023-04-27T23:56:51.890Z,5.30
2023-04-27T23:59:19.196Z,4.18
